Ana Sayfa
METAR-TAF:

METAR-TAF

Havaalanları :

Karaçi, Pakistan

Enlem: 24-54N, Boylam: 067-08E, yükseklik: 21 m

Güncel hava durumu gözlemi

Rapor saat 00:25 UTC de 29 dakika önce yapıldı.
Sakin rüzgar
Sıcaklık 30°C
Nem 75%
Basınç 1008 hPa
Görüş mesafesi: 5000 m
2000 ft yükseklikte az bulutlu
Duman

METAR: OPKC 230025Z 00000KT 5000 FU FEW020 30/25 Q1008 NOSIG

Saat: 05:54 (00:54 UTC)

Tahmin

Rapor saat 21:30 UTC de 3 saat ve 24 dakika önce yapıldı.
Ayın 23'si saat 00 UTC'den ayın 24'si saat 06 UTC'ye kadar geçerli Tahmin
Rüzgar batı/güneybatıdan 5 kt ve 15 kt'a kadar ani rüzgarlar
Görüş mesafesi: 6000 m
Geçici
ayın 23'si saat 00 UTC'den ayın 23'si saat 06 UTC'ye kadar
Rüzgar kuzeydoğudan 7 kt
Görüş mesafesi: 4000 m
Duman
Dönüşüyor
ayın 23'si saat 16 UTC'den ayın 23'si saat 18 UTC'ye kadar
Rüzgar doğu/kuzeydoğudan 8 kt
Görüş mesafesi: 5000 m
Toz Pusu

TAF: OPKC 222130Z 2300/2406 24005G15KT 6000 NSC TEMPO 2300/2306 05007KT 4000 FU NSC BECMG 2316/2318 06008KT 5000 HZ NSC

4.000'den fazla havaalanı için hava durumu gözlemleri ve tahminleri (METAR ve TAF raporları).

Kullanılabilir istasyonlar harita üzerinde sarı ve kırmızı noktalarla gösterilir.

İstasyonun adını görmek için fareyi noktanın üzerinde gezdirin.

Sonrasında hava gözlem ve tahminlerini görmek için tıklayın.

Haritayı değiştirmek için: yaklaştırmak için siyah artı işaretli yeşil düğmeye ve uzaklaştırmak için de eksi işaretli düğmeye hızla tıklayın; bitişik haritalar için yeşil okları kullanın.


METAR-TAF: